sensor_id;sensor_type;location;lat;lon;timestamp;P1;durP1;ratioP1;P2;durP2;ratioP2
826;SDS011;395;48.132;11.608;2022-10-29T00:00:23;5.87;;;2.93;;
826;SDS011;395;48.132;11.608;2022-10-29T00:02:49;8.80;;;3.17;;
826;SDS011;395;48.132;11.608;2022-10-29T00:05:14;4.53;;;2.97;;
826;SDS011;395;48.132;11.608;2022-10-29T00:07:40;7.10;;;3.00;;
826;SDS011;395;48.132;11.608;2022-10-29T00:10:06;10.13;;;2.83;;
826;SDS011;395;48.132;11.608;2022-10-29T00:12:32;8.60;;;2.90;;
826;SDS011;395;48.132;11.608;2022-10-29T00:14:58;5.57;;;3.23;;
826;SDS011;395;48.132;11.608;2022-10-29T00:17:23;7.67;;;2.97;;
826;SDS011;395;48.132;11.608;2022-10-29T00:19:49;5.33;;;2.70;;
826;SDS011;395;48.132;11.608;2022-10-29T00:22:15;6.60;;;3.10;;
826;SDS011;395;48.132;11.608;2022-10-29T00:24:40;6.63;;;2.93;;
826;SDS011;395;48.132;11.608;2022-10-29T00:27:06;5.53;;;2.57;;
826;SDS011;395;48.132;11.608;2022-10-29T00:29:32;5.60;;;2.73;;
826;SDS011;395;48.132;11.608;2022-10-29T00:31:57;4.70;;;2.43;;
826;SDS011;395;48.132;11.608;2022-10-29T00:34:23;8.83;;;2.90;;
826;SDS011;395;48.132;11.608;2022-10-29T00:36:48;5.60;;;3.20;;
826;SDS011;395;48.132;11.608;2022-10-29T00:39:14;5.07;;;3.27;;
826;SDS011;395;48.132;11.608;2022-10-29T00:41:41;4.70;;;2.53;;
826;SDS011;395;48.132;11.608;2022-10-29T00:46:43;8.17;;;2.93;;
826;SDS011;395;48.132;11.608;2022-10-29T00:49:14;7.03;;;3.33;;
826;SDS011;395;48.132;11.608;2022-10-29T00:51:41;5.07;;;2.60;;
826;SDS011;395;48.132;11.608;2022-10-29T00:54:08;8.07;;;3.10;;
826;SDS011;395;48.132;11.608;2022-10-29T00:56:37;5.23;;;3.10;;
826;SDS011;395;48.132;11.608;2022-10-29T00:59:06;2.93;;;2.27;;
826;SDS011;395;48.132;11.608;2022-10-29T01:01:33;5.20;;;2.87;;
826;SDS011;395;48.132;11.608;2022-10-29T01:04:00;6.47;;;3.17;;
826;SDS011;395;48.132;11.608;2022-10-29T01:06:27;8.07;;;3.33;;
826;SDS011;395;48.132;11.608;2022-10-29T01:08:53;12.60;;;4.50;;
826;SDS011;395;48.132;11.608;2022-10-29T01:11:25;7.47;;;4.10;;
826;SDS011;395;48.132;11.608;2022-10-29T01:22:14;4.80;;;2.90;;
826;SDS011;395;48.132;11.608;2022-10-29T01:27:37;6.63;;;2.90;;
826;SDS011;395;48.132;11.608;2022-10-29T01:32:47;5.30;;;3.20;;
826;SDS011;395;48.132;11.608;2022-10-29T01:35:59;4.90;;;3.00;;
826;SDS011;395;48.132;11.608;2022-10-29T01:38:50;10.63;;;3.83;;
826;SDS011;395;48.132;11.608;2022-10-29T01:41:20;7.13;;;3.40;;
826;SDS011;395;48.132;11.608;2022-10-29T01:43:57;5.37;;;3.67;;
826;SDS011;395;48.132;11.608;2022-10-29T01:49:03;7.70;;;3.40;;
826;SDS011;395;48.132;11.608;2022-10-29T01:51:33;3.83;;;2.80;;
826;SDS011;395;48.132;11.608;2022-10-29T01:54:00;8.00;;;3.53;;
826;SDS011;395;48.132;11.608;2022-10-29T01:56:32;8.97;;;3.23;;
826;SDS011;395;48.132;11.608;2022-10-29T01:58:58;5.60;;;3.33;;
826;SDS011;395;48.132;11.608;2022-10-29T02:09:32;7.90;;;3.50;;
826;SDS011;395;48.132;11.608;2022-10-29T02:12:26;5.70;;;3.33;;
826;SDS011;395;48.132;11.608;2022-10-29T02:14:59;5.03;;;3.03;;
826;SDS011;395;48.132;11.608;2022-10-29T02:17:29;3.90;;;2.90;;
826;SDS011;395;48.132;11.608;2022-10-29T02:19:56;4.30;;;2.50;;
826;SDS011;395;48.132;11.608;2022-10-29T02:22:22;6.50;;;3.40;;
826;SDS011;395;48.132;11.608;2022-10-29T02:24:47;5.40;;;2.60;;
826;SDS011;395;48.132;11.608;2022-10-29T02:27:13;6.23;;;3.57;;
826;SDS011;395;48.132;11.608;2022-10-29T02:29:39;7.63;;;2.70;;
826;SDS011;395;48.132;11.608;2022-10-29T02:32:04;13.13;;;4.90;;
826;SDS011;395;48.132;11.608;2022-10-29T02:34:30;9.90;;;5.00;;
826;SDS011;395;48.132;11.608;2022-10-29T02:36:55;6.93;;;4.13;;
826;SDS011;395;48.132;11.608;2022-10-29T02:39:21;5.50;;;3.60;;
826;SDS011;395;48.132;11.608;2022-10-29T02:41:47;14.80;;;4.33;;
826;SDS011;395;48.132;11.608;2022-10-29T02:44:13;7.07;;;3.63;;
826;SDS011;395;48.132;11.608;2022-10-29T02:46:38;6.67;;;2.90;;
826;SDS011;395;48.132;11.608;2022-10-29T02:49:05;5.60;;;3.20;;
826;SDS011;395;48.132;11.608;2022-10-29T02:51:31;6.57;;;3.10;;
826;SDS011;395;48.132;11.608;2022-10-29T02:53:57;8.53;;;3.17;;
826;SDS011;395;48.132;11.608;2022-10-29T02:56:23;9.47;;;2.93;;
826;SDS011;395;48.132;11.608;2022-10-29T02:58:48;5.63;;;3.13;;
826;SDS011;395;48.132;11.608;2022-10-29T03:01:14;5.50;;;2.70;;
826;SDS011;395;48.132;11.608;2022-10-29T03:03:40;6.00;;;3.00;;
826;SDS011;395;48.132;11.608;2022-10-29T03:06:11;3.30;;;2.87;;
826;SDS011;395;48.132;11.608;2022-10-29T03:08:38;6.03;;;3.43;;
826;SDS011;395;48.132;11.608;2022-10-29T03:11:03;6.57;;;3.20;;
826;SDS011;395;48.132;11.608;2022-10-29T03:13:29;7.23;;;3.30;;
826;SDS011;395;48.132;11.608;2022-10-29T03:15:55;6.10;;;3.40;;
826;SDS011;395;48.132;11.608;2022-10-29T03:18:20;9.73;;;3.67;;
826;SDS011;395;48.132;11.608;2022-10-29T03:20:46;6.30;;;3.03;;
826;SDS011;395;48.132;11.608;2022-10-29T03:23:11;7.10;;;3.10;;
826;SDS011;395;48.132;11.608;2022-10-29T03:25:37;4.70;;;3.00;;
826;SDS011;395;48.132;11.608;2022-10-29T03:28:03;3.70;;;2.70;;
826;SDS011;395;48.132;11.608;2022-10-29T03:30:29;5.73;;;3.27;;
826;SDS011;395;48.132;11.608;2022-10-29T03:32:54;5.60;;;2.47;;
826;SDS011;395;48.132;11.608;2022-10-29T03:35:20;7.53;;;3.10;;
826;SDS011;395;48.132;11.608;2022-10-29T03:37:49;5.03;;;2.60;;
826;SDS011;395;48.132;11.608;2022-10-29T03:40:15;8.43;;;3.37;;
826;SDS011;395;48.132;11.608;2022-10-29T03:42:41;4.10;;;2.63;;
826;SDS011;395;48.132;11.608;2022-10-29T03:45:07;6.20;;;3.40;;
826;SDS011;395;48.132;11.608;2022-10-29T03:47:34;11.37;;;4.07;;
826;SDS011;395;48.132;11.608;2022-10-29T03:49:59;6.20;;;3.13;;
826;SDS011;395;48.132;11.608;2022-10-29T03:52:25;6.90;;;3.30;;
826;SDS011;395;48.132;11.608;2022-10-29T03:54:51;5.33;;;3.07;;
826;SDS011;395;48.132;11.608;2022-10-29T03:57:17;8.47;;;2.60;;
826;SDS011;395;48.132;11.608;2022-10-29T03:59:43;4.90;;;2.90;;
826;SDS011;395;48.132;11.608;2022-10-29T04:02:08;5.27;;;3.00;;
826;SDS011;395;48.132;11.608;2022-10-29T04:04:36;5.20;;;2.13;;
826;SDS011;395;48.132;11.608;2022-10-29T04:07:05;5.20;;;2.17;;
826;SDS011;395;48.132;11.608;2022-10-29T04:09:31;5.13;;;2.37;;
826;SDS011;395;48.132;11.608;2022-10-29T04:11:56;6.83;;;2.43;;
826;SDS011;395;48.132;11.608;2022-10-29T04:14:22;6.63;;;2.83;;
826;SDS011;395;48.132;11.608;2022-10-29T04:16:47;4.20;;;2.13;;
826;SDS011;395;48.132;11.608;2022-10-29T04:19:13;8.80;;;2.70;;
826;SDS011;395;48.132;11.608;2022-10-29T04:21:39;8.93;;;2.60;;
826;SDS011;395;48.132;11.608;2022-10-29T04:24:04;6.10;;;2.73;;
826;SDS011;395;48.132;11.608;2022-10-29T04:26:30;5.60;;;2.40;;
826;SDS011;395;48.132;11.608;2022-10-29T04:28:56;5.33;;;3.00;;
826;SDS011;395;48.132;11.608;2022-10-29T04:31:21;4.30;;;2.80;;
826;SDS011;395;48.132;11.608;2022-10-29T04:33:47;7.30;;;2.90;;
826;SDS011;395;48.132;11.608;2022-10-29T04:36:12;8.20;;;2.77;;
826;SDS011;395;48.132;11.608;2022-10-29T04:38:38;4.80;;;2.27;;
826;SDS011;395;48.132;11.608;2022-10-29T04:41:04;4.57;;;2.33;;
826;SDS011;395;48.132;11.608;2022-10-29T04:43:30;5.77;;;2.33;;
826;SDS011;395;48.132;11.608;2022-10-29T04:45:56;7.70;;;2.70;;
826;SDS011;395;48.132;11.608;2022-10-29T04:48:23;5.00;;;2.70;;
826;SDS011;395;48.132;11.608;2022-10-29T04:50:50;6.37;;;3.07;;
826;SDS011;395;48.132;11.608;2022-10-29T04:53:15;3.90;;;2.50;;
826;SDS011;395;48.132;11.608;2022-10-29T04:55:42;5.07;;;2.80;;
826;SDS011;395;48.132;11.608;2022-10-29T04:58:12;4.20;;;2.27;;
826;SDS011;395;48.132;11.608;2022-10-29T05:00:43;7.27;;;2.53;;
826;SDS011;395;48.132;11.608;2022-10-29T05:03:09;4.53;;;2.00;;
826;SDS011;395;48.132;11.608;2022-10-29T05:05:36;5.67;;;2.43;;
826;SDS011;395;48.132;11.608;2022-10-29T05:08:03;6.70;;;2.60;;
826;SDS011;395;48.132;11.608;2022-10-29T05:10:30;5.07;;;1.93;;
826;SDS011;395;48.132;11.608;2022-10-29T05:13:01;4.40;;;2.27;;
826;SDS011;395;48.132;11.608;2022-10-29T05:15:29;8.37;;;2.47;;
826;SDS011;395;48.132;11.608;2022-10-29T05:17:55;7.53;;;2.57;;
826;SDS011;395;48.132;11.608;2022-10-29T05:20:21;5.43;;;2.37;;
826;SDS011;395;48.132;11.608;2022-10-29T05:22:47;7.53;;;2.70;;
826;SDS011;395;48.132;11.608;2022-10-29T05:25:13;11.33;;;2.90;;
826;SDS011;395;48.132;11.608;2022-10-29T05:27:39;4.87;;;2.60;;
826;SDS011;395;48.132;11.608;2022-10-29T05:30:05;4.87;;;2.53;;
826;SDS011;395;48.132;11.608;2022-10-29T05:32:32;6.60;;;2.60;;
826;SDS011;395;48.132;11.608;2022-10-29T05:34:57;9.00;;;2.97;;
826;SDS011;395;48.132;11.608;2022-10-29T05:37:23;5.57;;;2.60;;
826;SDS011;395;48.132;11.608;2022-10-29T05:39:49;6.87;;;2.50;;
826;SDS011;395;48.132;11.608;2022-10-29T05:42:15;10.27;;;2.63;;
826;SDS011;395;48.132;11.608;2022-10-29T05:44:41;4.80;;;2.27;;
826;SDS011;395;48.132;11.608;2022-10-29T05:47:07;6.40;;;2.37;;
826;SDS011;395;48.132;11.608;2022-10-29T05:49:32;5.30;;;2.90;;
826;SDS011;395;48.132;11.608;2022-10-29T05:51:58;7.93;;;2.80;;
826;SDS011;395;48.132;11.608;2022-10-29T05:54:24;11.20;;;2.43;;
826;SDS011;395;48.132;11.608;2022-10-29T05:56:49;6.07;;;2.60;;
826;SDS011;395;48.132;11.608;2022-10-29T05:59:15;6.10;;;2.60;;
826;SDS011;395;48.132;11.608;2022-10-29T06:01:40;6.77;;;3.30;;
826;SDS011;395;48.132;11.608;2022-10-29T06:04:06;5.17;;;2.80;;
826;SDS011;395;48.132;11.608;2022-10-29T06:06:32;13.80;;;3.07;;
826;SDS011;395;48.132;11.608;2022-10-29T06:08:58;7.63;;;2.27;;
826;SDS011;395;48.132;11.608;2022-10-29T06:11:23;5.53;;;2.50;;
826;SDS011;395;48.132;11.608;2022-10-29T06:13:49;10.40;;;2.70;;
826;SDS011;395;48.132;11.608;2022-10-29T06:16:18;11.67;;;2.50;;
826;SDS011;395;48.132;11.608;2022-10-29T06:18:44;12.33;;;3.27;;
826;SDS011;395;48.132;11.608;2022-10-29T06:21:10;9.53;;;3.83;;
826;SDS011;395;48.132;11.608;2022-10-29T06:23:35;7.43;;;3.37;;
826;SDS011;395;48.132;11.608;2022-10-29T06:26:01;7.13;;;3.30;;
826;SDS011;395;48.132;11.608;2022-10-29T06:28:27;15.37;;;2.90;;
826;SDS011;395;48.132;11.608;2022-10-29T06:30:53;7.23;;;3.47;;
826;SDS011;395;48.132;11.608;2022-10-29T06:33:19;10.40;;;3.80;;
826;SDS011;395;48.132;11.608;2022-10-29T06:35:45;8.73;;;3.00;;
826;SDS011;395;48.132;11.608;2022-10-29T06:38:11;5.77;;;2.90;;
826;SDS011;395;48.132;11.608;2022-10-29T06:40:37;10.57;;;3.00;;
826;SDS011;395;48.132;11.608;2022-10-29T06:43:05;6.47;;;2.77;;
826;SDS011;395;48.132;11.608;2022-10-29T06:45:33;5.77;;;2.40;;
826;SDS011;395;48.132;11.608;2022-10-29T06:47:59;8.83;;;2.87;;
826;SDS011;395;48.132;11.608;2022-10-29T06:50:25;8.73;;;2.60;;
826;SDS011;395;48.132;11.608;2022-10-29T06:52:54;5.80;;;2.93;;
826;SDS011;395;48.132;11.608;2022-10-29T06:55:21;5.73;;;3.13;;
826;SDS011;395;48.132;11.608;2022-10-29T06:57:47;7.13;;;2.77;;
826;SDS011;395;48.132;11.608;2022-10-29T07:00:12;4.53;;;3.10;;
826;SDS011;395;48.132;11.608;2022-10-29T07:02:38;10.00;;;3.53;;
826;SDS011;395;48.132;11.608;2022-10-29T07:05:04;5.73;;;2.77;;
826;SDS011;395;48.132;11.608;2022-10-29T07:07:30;7.13;;;3.70;;
826;SDS011;395;48.132;11.608;2022-10-29T07:09:55;8.77;;;4.70;;
826;SDS011;395;48.132;11.608;2022-10-29T07:12:22;14.40;;;4.40;;
826;SDS011;395;48.132;11.608;2022-10-29T07:14:47;5.70;;;3.40;;
826;SDS011;395;48.132;11.608;2022-10-29T07:17:13;9.87;;;3.53;;
826;SDS011;395;48.132;11.608;2022-10-29T07:19:39;7.93;;;3.00;;
826;SDS011;395;48.132;11.608;2022-10-29T07:22:04;10.23;;;3.27;;
826;SDS011;395;48.132;11.608;2022-10-29T07:24:30;13.17;;;4.37;;
826;SDS011;395;48.132;11.608;2022-10-29T07:26:55;6.73;;;3.60;;
826;SDS011;395;48.132;11.608;2022-10-29T07:29:21;8.40;;;3.43;;
826;SDS011;395;48.132;11.608;2022-10-29T07:31:47;12.43;;;4.23;;
826;SDS011;395;48.132;11.608;2022-10-29T07:34:13;6.93;;;3.47;;
826;SDS011;395;48.132;11.608;2022-10-29T07:36:38;8.17;;;3.60;;
826;SDS011;395;48.132;11.608;2022-10-29T07:39:04;7.63;;;3.37;;
826;SDS011;395;48.132;11.608;2022-10-29T07:41:31;7.73;;;3.53;;
826;SDS011;395;48.132;11.608;2022-10-29T07:43:57;4.90;;;2.70;;
826;SDS011;395;48.132;11.608;2022-10-29T07:46:23;9.50;;;3.93;;
826;SDS011;395;48.132;11.608;2022-10-29T07:48:48;9.53;;;3.20;;
826;SDS011;395;48.132;11.608;2022-10-29T07:51:14;5.93;;;3.10;;
826;SDS011;395;48.132;11.608;2022-10-29T07:53:40;8.00;;;3.20;;
826;SDS011;395;48.132;11.608;2022-10-29T07:56:05;7.00;;;2.87;;
826;SDS011;395;48.132;11.608;2022-10-29T07:58:31;8.00;;;3.37;;
826;SDS011;395;48.132;11.608;2022-10-29T08:00:58;9.40;;;3.17;;
826;SDS011;395;48.132;11.608;2022-10-29T08:03:24;7.73;;;3.00;;
826;SDS011;395;48.132;11.608;2022-10-29T08:05:49;7.93;;;3.50;;
826;SDS011;395;48.132;11.608;2022-10-29T08:08:15;8.77;;;3.40;;
826;SDS011;395;48.132;11.608;2022-10-29T08:10:41;7.77;;;3.30;;
826;SDS011;395;48.132;11.608;2022-10-29T08:13:07;6.40;;;2.50;;
826;SDS011;395;48.132;11.608;2022-10-29T08:15:33;6.80;;;3.00;;
826;SDS011;395;48.132;11.608;2022-10-29T08:17:59;5.90;;;2.70;;
826;SDS011;395;48.132;11.608;2022-10-29T08:20:26;7.07;;;2.97;;
826;SDS011;395;48.132;11.608;2022-10-29T08:22:53;6.73;;;3.43;;
826;SDS011;395;48.132;11.608;2022-10-29T08:25:18;9.33;;;3.87;;
826;SDS011;395;48.132;11.608;2022-10-29T08:27:44;12.17;;;3.60;;
826;SDS011;395;48.132;11.608;2022-10-29T08:30:21;8.00;;;3.30;;
826;SDS011;395;48.132;11.608;2022-10-29T08:32:46;8.40;;;2.60;;
826;SDS011;395;48.132;11.608;2022-10-29T08:35:13;10.10;;;3.23;;
826;SDS011;395;48.132;11.608;2022-10-29T08:37:42;9.60;;;3.73;;
826;SDS011;395;48.132;11.608;2022-10-29T08:40:28;13.30;;;2.97;;
826;SDS011;395;48.132;11.608;2022-10-29T08:45:48;9.03;;;3.73;;
826;SDS011;395;48.132;11.608;2022-10-29T08:51:16;11.10;;;3.63;;
826;SDS011;395;48.132;11.608;2022-10-29T08:53:50;8.53;;;3.50;;
826;SDS011;395;48.132;11.608;2022-10-29T08:56:19;7.60;;;3.20;;
826;SDS011;395;48.132;11.608;2022-10-29T09:01:32;9.40;;;3.13;;
826;SDS011;395;48.132;11.608;2022-10-29T09:03:59;10.40;;;3.90;;
826;SDS011;395;48.132;11.608;2022-10-29T09:09:37;10.93;;;3.70;;
826;SDS011;395;48.132;11.608;2022-10-29T09:20:29;11.70;;;4.93;;
826;SDS011;395;48.132;11.608;2022-10-29T09:23:13;14.80;;;5.40;;
826;SDS011;395;48.132;11.608;2022-10-29T09:26:00;12.10;;;5.37;;
826;SDS011;395;48.132;11.608;2022-10-29T09:31:39;9.67;;;3.93;;
826;SDS011;395;48.132;11.608;2022-10-29T09:34:12;8.30;;;3.50;;
826;SDS011;395;48.132;11.608;2022-10-29T09:36:46;8.17;;;3.30;;
826;SDS011;395;48.132;11.608;2022-10-29T09:39:13;6.40;;;2.90;;
826;SDS011;395;48.132;11.608;2022-10-29T09:41:45;5.73;;;2.80;;
826;SDS011;395;48.132;11.608;2022-10-29T09:44:50;7.80;;;2.70;;
826;SDS011;395;48.132;11.608;2022-10-29T09:47:14;10.40;;;3.90;;
826;SDS011;395;48.132;11.608;2022-10-29T09:50:23;9.30;;;3.13;;
826;SDS011;395;48.132;11.608;2022-10-29T09:53:17;9.37;;;2.90;;
826;SDS011;395;48.132;11.608;2022-10-29T09:55:43;5.30;;;2.93;;
826;SDS011;395;48.132;11.608;2022-10-29T09:58:47;6.63;;;2.90;;
826;SDS011;395;48.132;11.608;2022-10-29T10:01:07;5.63;;;2.33;;
826;SDS011;395;48.132;11.608;2022-10-29T10:03:34;10.07;;;2.57;;
826;SDS011;395;48.132;11.608;2022-10-29T10:06:09;6.63;;;2.90;;
826;SDS011;395;48.132;11.608;2022-10-29T10:11:26;10.03;;;4.30;;
826;SDS011;395;48.132;11.608;2022-10-29T10:14:15;5.93;;;2.90;;
826;SDS011;395;48.132;11.608;2022-10-29T10:16:55;9.63;;;3.87;;
826;SDS011;395;48.132;11.608;2022-10-29T10:19:22;10.37;;;3.80;;
826;SDS011;395;48.132;11.608;2022-10-29T10:21:56;9.07;;;3.30;;
826;SDS011;395;48.132;11.608;2022-10-29T10:24:30;9.03;;;3.47;;
826;SDS011;395;48.132;11.608;2022-10-29T10:26:57;5.43;;;2.80;;
826;SDS011;395;48.132;11.608;2022-10-29T10:29:24;7.87;;;3.03;;
826;SDS011;395;48.132;11.608;2022-10-29T10:34:40;10.10;;;3.27;;
826;SDS011;395;48.132;11.608;2022-10-29T10:37:10;6.93;;;3.20;;
826;SDS011;395;48.132;11.608;2022-10-29T10:39:41;8.03;;;3.20;;
826;SDS011;395;48.132;11.608;2022-10-29T10:44:50;10.70;;;3.20;;
826;SDS011;395;48.132;11.608;2022-10-29T10:47:28;12.27;;;3.60;;
826;SDS011;395;48.132;11.608;2022-10-29T10:50:43;11.40;;;3.23;;
826;SDS011;395;48.132;11.608;2022-10-29T10:52:46;7.30;;;2.77;;
826;SDS011;395;48.132;11.608;2022-10-29T10:57:48;8.60;;;3.50;;
826;SDS011;395;48.132;11.608;2022-10-29T11:00:21;10.87;;;2.47;;
826;SDS011;395;48.132;11.608;2022-10-29T11:02:49;6.27;;;2.73;;
826;SDS011;395;48.132;11.608;2022-10-29T11:05:17;6.10;;;2.77;;
826;SDS011;395;48.132;11.608;2022-10-29T11:07:46;9.77;;;2.63;;
826;SDS011;395;48.132;11.608;2022-10-29T11:10:26;8.50;;;2.37;;
826;SDS011;395;48.132;11.608;2022-10-29T11:12:59;6.80;;;2.70;;
826;SDS011;395;48.132;11.608;2022-10-29T11:18:03;9.60;;;3.07;;
826;SDS011;395;48.132;11.608;2022-10-29T11:21:28;10.33;;;3.20;;
826;SDS011;395;48.132;11.608;2022-10-29T11:26:10;8.07;;;2.60;;
826;SDS011;395;48.132;11.608;2022-10-29T11:28:48;10.93;;;3.27;;
826;SDS011;395;48.132;11.608;2022-10-29T11:31:24;9.33;;;3.00;;
826;SDS011;395;48.132;11.608;2022-10-29T11:36:30;10.50;;;3.00;;
826;SDS011;395;48.132;11.608;2022-10-29T11:39:08;9.47;;;2.60;;
826;SDS011;395;48.132;11.608;2022-10-29T11:44:11;10.03;;;2.73;;
826;SDS011;395;48.132;11.608;2022-10-29T11:49:31;11.23;;;2.90;;
826;SDS011;395;48.132;11.608;2022-10-29T11:52:12;15.70;;;3.23;;
826;SDS011;395;48.132;11.608;2022-10-29T12:15:40;9.43;;;2.53;;
826;SDS011;395;48.132;11.608;2022-10-29T12:18:27;8.50;;;3.87;;
826;SDS011;395;48.132;11.608;2022-10-29T12:26:43;6.20;;;2.57;;
826;SDS011;395;48.132;11.608;2022-10-29T12:29:22;7.60;;;3.17;;
826;SDS011;395;48.132;11.608;2022-10-29T12:32:21;8.23;;;3.10;;
826;SDS011;395;48.132;11.608;2022-10-29T12:35:13;10.30;;;3.40;;
826;SDS011;395;48.132;11.608;2022-10-29T12:40:41;6.07;;;2.63;;
826;SDS011;395;48.132;11.608;2022-10-29T12:43:42;7.97;;;2.90;;
826;SDS011;395;48.132;11.608;2022-10-29T12:56:22;8.47;;;3.30;;
826;SDS011;395;48.132;11.608;2022-10-29T12:58:54;5.90;;;2.53;;
826;SDS011;395;48.132;11.608;2022-10-29T13:09:20;6.70;;;3.30;;
826;SDS011;395;48.132;11.608;2022-10-29T13:11:51;8.60;;;3.03;;
826;SDS011;395;48.132;11.608;2022-10-29T13:14:20;11.20;;;3.00;;
826;SDS011;395;48.132;11.608;2022-10-29T13:16:50;7.80;;;3.00;;
826;SDS011;395;48.132;11.608;2022-10-29T13:19:22;8.23;;;3.07;;
826;SDS011;395;48.132;11.608;2022-10-29T13:21:54;8.40;;;3.00;;
826;SDS011;395;48.132;11.608;2022-10-29T13:24:33;4.17;;;2.87;;
826;SDS011;395;48.132;11.608;2022-10-29T13:27:03;8.23;;;3.40;;
826;SDS011;395;48.132;11.608;2022-10-29T13:29:50;9.63;;;3.13;;
826;SDS011;395;48.132;11.608;2022-10-29T13:32:41;8.33;;;3.70;;
826;SDS011;395;48.132;11.608;2022-10-29T13:45:29;9.73;;;3.50;;
826;SDS011;395;48.132;11.608;2022-10-29T13:48:06;9.13;;;3.03;;
826;SDS011;395;48.132;11.608;2022-10-29T13:50:46;13.07;;;3.63;;
826;SDS011;395;48.132;11.608;2022-10-29T13:53:16;6.10;;;3.07;;
826;SDS011;395;48.132;11.608;2022-10-29T13:55:47;8.80;;;3.23;;
826;SDS011;395;48.132;11.608;2022-10-29T13:58:14;9.20;;;4.60;;
826;SDS011;395;48.132;11.608;2022-10-29T14:00:44;11.03;;;4.00;;
826;SDS011;395;48.132;11.608;2022-10-29T14:03:15;8.60;;;4.53;;
826;SDS011;395;48.132;11.608;2022-10-29T14:06:02;6.63;;;3.93;;
826;SDS011;395;48.132;11.608;2022-10-29T14:08:36;7.23;;;3.17;;
826;SDS011;395;48.132;11.608;2022-10-29T14:11:08;8.70;;;3.67;;
826;SDS011;395;48.132;11.608;2022-10-29T14:13:48;7.67;;;3.80;;
826;SDS011;395;48.132;11.608;2022-10-29T14:16:16;13.60;;;4.07;;
826;SDS011;395;48.132;11.608;2022-10-29T14:18:48;10.27;;;3.97;;
826;SDS011;395;48.132;11.608;2022-10-29T14:23:56;10.17;;;3.60;;
826;SDS011;395;48.132;11.608;2022-10-29T14:26:22;7.43;;;3.57;;
826;SDS011;395;48.132;11.608;2022-10-29T14:28:48;8.10;;;3.73;;
826;SDS011;395;48.132;11.608;2022-10-29T14:31:16;6.97;;;3.60;;
826;SDS011;395;48.132;11.608;2022-10-29T14:33:45;9.47;;;3.83;;
826;SDS011;395;48.132;11.608;2022-10-29T14:39:22;10.47;;;3.80;;
826;SDS011;395;48.132;11.608;2022-10-29T14:42:02;8.93;;;4.37;;
826;SDS011;395;48.132;11.608;2022-10-29T14:44:30;10.80;;;3.57;;
826;SDS011;395;48.132;11.608;2022-10-29T14:49:31;7.70;;;3.23;;
826;SDS011;395;48.132;11.608;2022-10-29T14:52:05;6.70;;;3.17;;
826;SDS011;395;48.132;11.608;2022-10-29T14:54:45;10.20;;;3.50;;
826;SDS011;395;48.132;11.608;2022-10-29T14:57:14;8.07;;;3.80;;
826;SDS011;395;48.132;11.608;2022-10-29T14:59:53;9.20;;;3.40;;
826;SDS011;395;48.132;11.608;2022-10-29T15:02:23;7.10;;;3.63;;
826;SDS011;395;48.132;11.608;2022-10-29T15:04:49;7.60;;;3.70;;
826;SDS011;395;48.132;11.608;2022-10-29T15:09:49;8.00;;;3.47;;
826;SDS011;395;48.132;11.608;2022-10-29T15:12:36;15.10;;;3.90;;
826;SDS011;395;48.132;11.608;2022-10-29T15:15:07;10.77;;;4.03;;
826;SDS011;395;48.132;11.608;2022-10-29T15:17:35;7.93;;;4.10;;
826;SDS011;395;48.132;11.608;2022-10-29T15:20:16;7.93;;;3.40;;
826;SDS011;395;48.132;11.608;2022-10-29T15:22:50;7.40;;;4.10;;
826;SDS011;395;48.132;11.608;2022-10-29T15:25:21;8.70;;;4.10;;
826;SDS011;395;48.132;11.608;2022-10-29T15:27:51;5.80;;;3.10;;
826;SDS011;395;48.132;11.608;2022-10-29T15:30:17;8.07;;;3.40;;
826;SDS011;395;48.132;11.608;2022-10-29T15:32:45;7.13;;;3.40;;
826;SDS011;395;48.132;11.608;2022-10-29T15:35:12;7.53;;;4.07;;
826;SDS011;395;48.132;11.608;2022-10-29T15:37:44;8.80;;;3.73;;
826;SDS011;395;48.132;11.608;2022-10-29T15:42:38;7.83;;;3.30;;
826;SDS011;395;48.132;11.608;2022-10-29T15:47:39;4.73;;;2.90;;
826;SDS011;395;48.132;11.608;2022-10-29T15:50:10;8.93;;;3.57;;
826;SDS011;395;48.132;11.608;2022-10-29T15:52:39;7.77;;;4.23;;
826;SDS011;395;48.132;11.608;2022-10-29T15:58:08;6.33;;;3.30;;
826;SDS011;395;48.132;11.608;2022-10-29T16:00:40;11.67;;;4.00;;
826;SDS011;395;48.132;11.608;2022-10-29T16:05:41;10.73;;;3.90;;
826;SDS011;395;48.132;11.608;2022-10-29T16:08:25;6.53;;;3.80;;
826;SDS011;395;48.132;11.608;2022-10-29T16:10:54;10.30;;;3.30;;
826;SDS011;395;48.132;11.608;2022-10-29T16:13:21;11.13;;;4.33;;
826;SDS011;395;48.132;11.608;2022-10-29T16:15:48;10.47;;;3.57;;
826;SDS011;395;48.132;11.608;2022-10-29T16:18:14;5.60;;;2.93;;
826;SDS011;395;48.132;11.608;2022-10-29T16:20:39;9.70;;;3.30;;
826;SDS011;395;48.132;11.608;2022-10-29T16:23:09;10.57;;;3.33;;
826;SDS011;395;48.132;11.608;2022-10-29T16:25:35;12.70;;;3.93;;
826;SDS011;395;48.132;11.608;2022-10-29T16:28:01;7.37;;;3.93;;
826;SDS011;395;48.132;11.608;2022-10-29T16:30:26;4.47;;;2.93;;
826;SDS011;395;48.132;11.608;2022-10-29T16:32:52;8.73;;;3.57;;
826;SDS011;395;48.132;11.608;2022-10-29T16:35:19;12.40;;;3.90;;
826;SDS011;395;48.132;11.608;2022-10-29T16:37:47;10.53;;;3.53;;
826;SDS011;395;48.132;11.608;2022-10-29T16:40:13;10.20;;;3.50;;
826;SDS011;395;48.132;11.608;2022-10-29T16:42:39;6.50;;;3.67;;
826;SDS011;395;48.132;11.608;2022-10-29T16:45:07;9.67;;;3.87;;
826;SDS011;395;48.132;11.608;2022-10-29T16:47:41;6.97;;;3.37;;
826;SDS011;395;48.132;11.608;2022-10-29T16:50:07;9.87;;;3.90;;
826;SDS011;395;48.132;11.608;2022-10-29T16:52:38;10.30;;;4.20;;
826;SDS011;395;48.132;11.608;2022-10-29T16:55:04;7.87;;;3.87;;
826;SDS011;395;48.132;11.608;2022-10-29T16:57:30;7.93;;;3.50;;
826;SDS011;395;48.132;11.608;2022-10-29T16:59:56;8.00;;;4.40;;
826;SDS011;395;48.132;11.608;2022-10-29T17:02:21;9.97;;;5.30;;
826;SDS011;395;48.132;11.608;2022-10-29T17:04:47;10.70;;;4.63;;
826;SDS011;395;48.132;11.608;2022-10-29T17:07:13;11.37;;;4.60;;
826;SDS011;395;48.132;11.608;2022-10-29T17:09:39;9.70;;;4.63;;
826;SDS011;395;48.132;11.608;2022-10-29T17:12:05;9.47;;;4.70;;
826;SDS011;395;48.132;11.608;2022-10-29T17:14:31;6.50;;;3.83;;
826;SDS011;395;48.132;11.608;2022-10-29T17:16:56;7.23;;;3.67;;
826;SDS011;395;48.132;11.608;2022-10-29T17:19:23;6.40;;;4.20;;
826;SDS011;395;48.132;11.608;2022-10-29T17:21:49;5.70;;;3.80;;
826;SDS011;395;48.132;11.608;2022-10-29T17:24:15;9.73;;;4.23;;
826;SDS011;395;48.132;11.608;2022-10-29T17:26:40;12.83;;;5.10;;
826;SDS011;395;48.132;11.608;2022-10-29T17:29:06;12.53;;;5.07;;
826;SDS011;395;48.132;11.608;2022-10-29T17:31:32;9.73;;;4.70;;
826;SDS011;395;48.132;11.608;2022-10-29T17:33:57;8.90;;;4.67;;
826;SDS011;395;48.132;11.608;2022-10-29T17:36:23;8.80;;;4.83;;
826;SDS011;395;48.132;11.608;2022-10-29T17:38:48;6.00;;;3.80;;
826;SDS011;395;48.132;11.608;2022-10-29T17:41:14;9.63;;;4.30;;
826;SDS011;395;48.132;11.608;2022-10-29T17:43:40;10.43;;;4.20;;
826;SDS011;395;48.132;11.608;2022-10-29T17:46:05;7.50;;;4.23;;
826;SDS011;395;48.132;11.608;2022-10-29T17:48:31;10.13;;;4.30;;
826;SDS011;395;48.132;11.608;2022-10-29T17:50:57;6.30;;;4.57;;
826;SDS011;395;48.132;11.608;2022-10-29T17:53:25;10.97;;;4.40;;
826;SDS011;395;48.132;11.608;2022-10-29T17:55:56;10.37;;;4.70;;
826;SDS011;395;48.132;11.608;2022-10-29T17:58:22;9.90;;;4.20;;
826;SDS011;395;48.132;11.608;2022-10-29T18:00:48;10.40;;;4.30;;
826;SDS011;395;48.132;11.608;2022-10-29T18:03:14;7.67;;;4.10;;
826;SDS011;395;48.132;11.608;2022-10-29T18:05:40;8.40;;;5.10;;
826;SDS011;395;48.132;11.608;2022-10-29T18:08:06;8.40;;;4.20;;
826;SDS011;395;48.132;11.608;2022-10-29T18:10:32;12.23;;;5.03;;
826;SDS011;395;48.132;11.608;2022-10-29T18:12:58;8.20;;;4.77;;